createdAt,value
2023-04-28T00:01:41.786Z,4.40
2023-04-28T00:04:08.779Z,4.30
2023-04-28T00:06:35.829Z,3.70
2023-04-28T00:09:03.417Z,3.47
2023-04-28T00:11:30.133Z,4.00
2023-04-28T00:13:56.815Z,4.10
2023-04-28T00:16:24.213Z,3.80
2023-04-28T00:18:51.360Z,3.90
2023-04-28T00:21:18.056Z,3.33
2023-04-28T00:23:44.748Z,3.33
2023-04-28T00:26:12.340Z,3.87
2023-04-28T00:28:39.068Z,3.87
2023-04-28T00:31:12.516Z,3.80
2023-04-28T00:33:40.399Z,4.00
2023-04-28T00:36:08.114Z,3.47
2023-04-28T00:38:34.946Z,3.90
2023-04-28T00:41:01.724Z,3.93
2023-04-28T00:43:29.040Z,3.77
2023-04-28T00:45:55.996Z,3.70
2023-04-28T00:48:24.149Z,4.10
2023-04-28T00:50:52.073Z,3.77
2023-04-28T00:53:18.869Z,3.63
2023-04-28T00:55:47.117Z,3.87
2023-04-28T00:58:13.922Z,3.80
2023-04-28T01:00:40.595Z,3.93
2023-04-28T01:03:08.040Z,3.70
2023-04-28T01:05:36.754Z,3.97
2023-04-28T01:08:04.646Z,3.70
2023-04-28T01:10:31.451Z,2.90
2023-04-28T01:12:58.112Z,3.60
2023-04-28T01:15:24.797Z,3.43
2023-04-28T01:17:52.008Z,3.10
2023-04-28T01:20:18.773Z,2.93
2023-04-28T01:22:45.502Z,2.73
2023-04-28T01:25:12.200Z,3.07
2023-04-28T01:27:39.384Z,2.30
2023-04-28T01:30:06.769Z,2.80
2023-04-28T01:32:33.642Z,2.37
2023-04-28T01:35:00.353Z,3.07
2023-04-28T01:37:27.072Z,2.70
2023-04-28T01:39:53.798Z,2.43
2023-04-28T01:42:20.653Z,2.93
2023-04-28T01:44:47.414Z,2.97
2023-04-28T01:47:14.112Z,3.37
2023-04-28T01:49:40.850Z,2.90
2023-04-28T01:52:07.581Z,2.97
2023-04-28T01:54:34.370Z,3.33
2023-04-28T01:57:03.009Z,2.83
2023-04-28T01:59:30.048Z,2.80
2023-04-28T02:01:57.079Z,2.60
2023-04-28T02:04:24.023Z,3.37
2023-04-28T02:06:50.788Z,2.83
2023-04-28T02:09:17.528Z,2.60
2023-04-28T02:11:44.206Z,2.80
2023-04-28T02:14:10.972Z,3.07
2023-04-28T02:16:37.701Z,2.73
2023-04-28T02:19:04.439Z,2.87
2023-04-28T02:21:31.883Z,2.37
2023-04-28T02:23:58.737Z,2.60
2023-04-28T02:26:25.841Z,2.80
2023-04-28T02:28:52.695Z,3.53
2023-04-28T02:31:19.771Z,3.63
2023-04-28T02:33:46.602Z,3.40
2023-04-28T02:36:13.342Z,2.83
2023-04-28T02:38:41.694Z,2.63
2023-04-28T02:41:09.358Z,2.27
2023-04-28T02:43:37.283Z,2.80
2023-04-28T02:46:05.014Z,2.70
2023-04-28T02:48:33.080Z,2.53
2023-04-28T02:50:59.726Z,2.30
2023-04-28T02:53:26.831Z,2.70
2023-04-28T02:55:53.944Z,2.70
2023-04-28T02:58:20.919Z,2.80
2023-04-28T03:00:49.029Z,2.60
2023-04-28T03:03:15.953Z,2.90
2023-04-28T03:05:42.920Z,2.80
2023-04-28T03:08:09.682Z,2.50
2023-04-28T03:10:36.581Z,3.20
2023-04-28T03:13:06.198Z,3.47
2023-04-28T03:15:33.047Z,3.57
2023-04-28T03:17:59.743Z,3.60
2023-04-28T03:20:26.494Z,3.90
2023-04-28T03:22:53.270Z,3.67
2023-04-28T03:25:19.921Z,3.70
2023-04-28T03:27:46.611Z,3.67
2023-04-28T03:30:14.011Z,3.57
2023-04-28T03:32:40.869Z,4.00
2023-04-28T03:35:07.864Z,4.43
2023-04-28T03:37:34.620Z,3.97
2023-04-28T03:40:01.486Z,3.87
2023-04-28T03:42:28.219Z,3.67
2023-04-28T03:44:54.878Z,2.87
2023-04-28T03:47:21.692Z,2.63
2023-04-28T03:49:48.463Z,3.10
2023-04-28T03:52:15.110Z,3.60
2023-04-28T03:54:41.752Z,3.40
2023-04-28T03:57:08.406Z,4.40
2023-04-28T03:59:35.627Z,3.53
2023-04-28T04:02:02.350Z,3.33
2023-04-28T04:04:29.273Z,3.90
2023-04-28T04:06:56.326Z,3.90
2023-04-28T04:09:23.251Z,4.20
2023-04-28T04:11:49.955Z,3.57
2023-04-28T04:14:17.172Z,4.00
2023-04-28T04:16:44.232Z,3.90
2023-04-28T04:19:11.013Z,3.80
2023-04-28T04:21:37.672Z,3.63
2023-04-28T04:24:04.659Z,3.50
2023-04-28T04:26:31.378Z,3.67
2023-04-28T04:28:58.051Z,2.93
2023-04-28T04:31:24.825Z,3.30
2023-04-28T04:33:51.776Z,2.90
2023-04-28T04:36:18.704Z,2.90
2023-04-28T04:38:45.435Z,3.40
2023-04-28T04:41:12.050Z,3.33
2023-04-28T04:43:38.737Z,4.10
2023-04-28T04:46:05.590Z,2.83
2023-04-28T04:48:32.219Z,2.40
2023-04-28T04:50:58.943Z,2.90
2023-04-28T04:53:25.653Z,2.73
2023-04-28T04:55:52.379Z,2.70
2023-04-28T04:58:19.243Z,2.03
2023-04-28T05:00:46.060Z,2.20
2023-04-28T05:03:12.908Z,2.53
2023-04-28T05:05:40.447Z,2.70
2023-04-28T05:08:07.211Z,2.30
2023-04-28T05:10:34.133Z,2.87
2023-04-28T05:13:00.916Z,2.30
2023-04-28T05:15:27.588Z,2.60
2023-04-28T05:17:54.533Z,2.77
2023-04-28T05:20:21.298Z,2.40
2023-04-28T05:22:48.068Z,2.90
2023-04-28T05:25:14.932Z,2.47
2023-04-28T05:27:41.840Z,2.53
2023-04-28T05:30:10.428Z,2.37
2023-04-28T05:32:37.959Z,2.47
2023-04-28T05:35:05.214Z,2.60
2023-04-28T05:37:31.834Z,2.60
2023-04-28T05:39:58.499Z,2.43
2023-04-28T05:42:25.160Z,2.60
2023-04-28T05:44:51.799Z,2.83
2023-04-28T05:47:18.477Z,2.17
2023-04-28T05:49:45.098Z,2.50
2023-04-28T05:52:11.752Z,2.63
2023-04-28T05:54:38.395Z,2.70
2023-04-28T05:57:05.350Z,2.50
2023-04-28T05:59:32.244Z,2.43
2023-04-28T06:01:58.951Z,2.80
2023-04-28T06:04:26.519Z,2.93
2023-04-28T06:06:53.609Z,2.80
2023-04-28T06:09:20.413Z,3.00
2023-04-28T06:11:47.122Z,2.50
2023-04-28T06:14:13.780Z,2.80
2023-04-28T06:16:40.648Z,2.80
2023-04-28T06:19:07.382Z,2.87
2023-04-28T06:21:34.130Z,3.17
2023-04-28T06:24:01.958Z,3.43
2023-04-28T06:26:29.055Z,3.43
2023-04-28T06:28:55.860Z,3.03
2023-04-28T06:31:22.710Z,3.07
2023-04-28T06:33:49.368Z,3.20
2023-04-28T06:36:18.126Z,3.00
2023-04-28T06:38:45.848Z,3.70
2023-04-28T06:41:12.638Z,3.87
2023-04-28T06:43:39.326Z,4.17
2023-04-28T06:46:06.071Z,5.00
2023-04-28T06:48:32.890Z,3.00
2023-04-28T06:50:59.530Z,3.30
2023-04-28T06:53:26.174Z,2.83
2023-04-28T06:55:53.056Z,3.00
2023-04-28T06:58:20.816Z,2.80
2023-04-28T07:00:47.788Z,2.80
2023-04-28T07:03:14.556Z,2.70
2023-04-28T07:05:41.353Z,2.80
2023-04-28T07:08:08.010Z,2.60
2023-04-28T07:10:34.748Z,3.30
2023-04-28T07:13:01.373Z,3.10
2023-04-28T07:15:28.695Z,2.70
2023-04-28T07:17:55.508Z,2.17
2023-04-28T07:20:22.616Z,2.60
2023-04-28T07:22:49.379Z,2.40
2023-04-28T07:25:16.312Z,2.20
2023-04-28T07:27:42.973Z,1.93
2023-04-28T07:30:25.828Z,2.10
2023-04-28T07:32:54.554Z,2.07
2023-04-28T07:35:21.363Z,2.30
2023-04-28T07:37:48.371Z,2.20
2023-04-28T07:40:15.499Z,2.63
2023-04-28T07:42:42.381Z,2.80
2023-04-28T07:45:09.453Z,1.90
2023-04-28T07:47:36.538Z,2.33
2023-04-28T07:50:06.268Z,2.30
2023-04-28T07:52:33.833Z,2.03
2023-04-28T07:55:00.720Z,2.40
2023-04-28T07:57:29.145Z,2.53
2023-04-28T07:59:56.200Z,1.90
2023-04-28T08:02:23.270Z,1.50
2023-04-28T08:04:50.190Z,1.80
2023-04-28T08:07:17.237Z,1.97
2023-04-28T08:09:47.669Z,2.10
2023-04-28T08:12:15.100Z,1.93
2023-04-28T08:14:42.028Z,1.93
2023-04-28T08:17:09.345Z,1.70
2023-04-28T08:19:36.018Z,1.90
2023-04-28T08:22:05.984Z,2.00
2023-04-28T08:24:36.764Z,2.30
2023-04-28T08:27:04.250Z,2.07
2023-04-28T08:29:31.872Z,1.83
2023-04-28T08:31:59.101Z,1.67
2023-04-28T08:34:25.938Z,2.20
2023-04-28T08:36:53.403Z,2.07
2023-04-28T08:39:24.010Z,2.10
2023-04-28T08:41:51.524Z,1.80
2023-04-28T08:44:18.966Z,2.73
2023-04-28T08:46:48.956Z,1.80
2023-04-28T08:49:18.391Z,1.70
2023-04-28T08:51:50.121Z,2.00
2023-04-28T08:54:26.130Z,2.20
2023-04-28T08:56:54.326Z,1.80
2023-04-28T08:59:21.522Z,1.60
2023-04-28T09:01:51.920Z,2.00
2023-04-28T09:04:20.534Z,1.63
2023-04-28T09:06:48.292Z,1.93
2023-04-28T09:09:35.668Z,2.13
2023-04-28T09:12:05.274Z,1.67
2023-04-28T09:14:34.512Z,2.00
2023-04-28T09:17:02.594Z,1.70
2023-04-28T09:19:34.486Z,1.80
2023-04-28T09:22:07.691Z,1.87
2023-04-28T09:24:42.886Z,1.87
2023-04-28T09:27:11.943Z,1.67
2023-04-28T09:29:39.563Z,1.97
2023-04-28T09:32:20.905Z,1.90
2023-04-28T09:34:50.374Z,1.80
2023-04-28T09:37:30.828Z,2.57
2023-04-28T09:40:04.162Z,2.40
2023-04-28T09:42:35.527Z,2.60
2023-04-28T09:45:09.526Z,2.90
2023-04-28T09:48:09.710Z,2.83
2023-04-28T09:50:41.664Z,2.80
2023-04-28T09:53:11.783Z,3.30
2023-04-28T09:55:43.986Z,3.53
2023-04-28T09:58:13.138Z,3.10
2023-04-28T10:00:41.066Z,4.67
2023-04-28T10:03:10.543Z,4.07
2023-04-28T10:05:39.894Z,3.90
2023-04-28T10:08:07.091Z,3.87
2023-04-28T10:10:34.103Z,3.33
2023-04-28T10:13:01.708Z,3.30
2023-04-28T10:15:28.514Z,3.00
2023-04-28T10:17:56.104Z,3.23
2023-04-28T10:20:23.358Z,2.97
2023-04-28T10:23:26.933Z,3.30
2023-04-28T10:25:58.090Z,2.70
2023-04-28T10:28:26.243Z,4.33
2023-04-28T10:31:16.108Z,3.10
2023-04-28T10:33:43.740Z,2.73
2023-04-28T10:36:10.975Z,3.23
2023-04-28T10:39:14.433Z,3.43
2023-04-28T10:41:41.799Z,2.60
2023-04-28T10:44:30.392Z,2.90
2023-04-28T10:47:17.495Z,2.70
2023-04-28T10:49:57.605Z,3.20
2023-04-28T10:52:33.541Z,3.83
2023-04-28T10:55:39.757Z,3.70
2023-04-28T10:58:15.718Z,3.63
2023-04-28T11:00:45.101Z,3.90
2023-04-28T11:03:47.466Z,4.67
2023-04-28T11:06:32.422Z,5.53
2023-04-28T11:09:02.301Z,4.97
2023-04-28T11:11:30.129Z,3.63
2023-04-28T11:14:16.789Z,3.90
2023-04-28T11:16:51.096Z,3.20
2023-04-28T11:19:26.042Z,3.63
2023-04-28T11:21:56.130Z,3.07
2023-04-28T11:24:25.727Z,3.10
2023-04-28T11:26:53.285Z,2.53
2023-04-28T11:29:31.981Z,2.33
2023-04-28T11:31:58.981Z,1.57
2023-04-28T11:34:25.693Z,1.43
2023-04-28T11:36:54.639Z,1.70
2023-04-28T11:39:32.866Z,1.40
2023-04-28T11:42:02.536Z,1.80
2023-04-28T11:44:31.709Z,1.20
2023-04-28T11:47:01.668Z,1.53
2023-04-28T11:49:30.977Z,2.07
2023-04-28T11:52:04.276Z,3.10
2023-04-28T11:54:31.061Z,3.23
2023-04-28T11:56:59.578Z,1.80
2023-04-28T11:59:28.279Z,2.10
2023-04-28T12:01:59.727Z,5.00
2023-04-28T12:04:27.363Z,1.60
2023-04-28T12:07:01.452Z,0.90
2023-04-28T12:09:28.489Z,1.60
2023-04-28T12:11:57.474Z,3.03
2023-04-28T12:14:25.035Z,1.00
2023-04-28T12:16:52.166Z,1.40
2023-04-28T12:19:20.157Z,1.10
2023-04-28T12:22:07.489Z,0.97
2023-04-28T12:24:35.920Z,0.93
2023-04-28T12:27:25.317Z,0.60
2023-04-28T12:29:52.633Z,1.10
2023-04-28T12:32:20.495Z,1.40
2023-04-28T12:34:47.654Z,1.00
2023-04-28T12:37:15.138Z,0.83
2023-04-28T12:39:42.576Z,1.50
2023-04-28T12:42:09.640Z,2.00
2023-04-28T12:44:38.296Z,1.77
2023-04-28T12:47:07.647Z,1.10
2023-04-28T12:49:38.406Z,0.90
2023-04-28T12:52:06.265Z,0.80
2023-04-28T12:54:33.143Z,1.03
2023-04-28T12:56:59.855Z,0.90
2023-04-28T12:59:26.801Z,0.70
2023-04-28T13:01:54.013Z,1.03
2023-04-28T13:04:21.632Z,0.80
2023-04-28T13:06:48.995Z,1.07
2023-04-28T13:09:16.055Z,1.03
2023-04-28T13:11:43.249Z,1.00
2023-04-28T13:14:09.972Z,0.63
2023-04-28T13:16:37.489Z,0.80
2023-04-28T13:19:09.400Z,0.90
2023-04-28T13:21:39.349Z,0.90
2023-04-28T13:24:06.428Z,0.97
2023-04-28T13:26:33.504Z,0.90
2023-04-28T13:29:01.391Z,1.07
2023-04-28T13:31:30.263Z,0.93
2023-04-28T13:33:57.985Z,0.80
2023-04-28T13:36:25.491Z,0.70
2023-04-28T13:38:52.481Z,0.77
2023-04-28T13:41:19.448Z,0.90
2023-04-28T13:43:46.233Z,1.00
2023-04-28T13:46:13.237Z,0.90
2023-04-28T13:48:40.604Z,1.10
2023-04-28T13:51:07.893Z,1.00
2023-04-28T13:53:35.722Z,0.63
2023-04-28T13:56:02.580Z,0.90
2023-04-28T13:58:29.672Z,1.00
2023-04-28T14:00:57.278Z,0.80
2023-04-28T14:03:24.791Z,1.20
2023-04-28T14:05:52.973Z,1.30
2023-04-28T14:08:21.057Z,1.00
2023-04-28T14:10:49.832Z,0.80
2023-04-28T14:13:17.116Z,0.80
2023-04-28T14:15:57.967Z,0.70
2023-04-28T14:18:25.798Z,0.70
2023-04-28T14:20:54.113Z,0.90
2023-04-28T14:23:21.423Z,0.83
2023-04-28T14:25:48.209Z,1.00
2023-04-28T14:28:14.867Z,1.37
2023-04-28T14:30:41.758Z,0.77
2023-04-28T14:33:08.579Z,1.10
2023-04-28T14:35:35.320Z,0.93
2023-04-28T14:38:02.883Z,1.00
2023-04-28T14:40:29.635Z,0.90
2023-04-28T14:42:56.388Z,1.00
2023-04-28T14:45:23.083Z,0.70
2023-04-28T14:47:50.519Z,1.37
2023-04-28T14:50:18.484Z,0.80
2023-04-28T14:52:45.400Z,1.17
2023-04-28T14:55:12.225Z,1.73
2023-04-28T14:57:38.999Z,1.00
2023-04-28T15:00:08.011Z,1.47
2023-04-28T15:02:35.810Z,1.00
2023-04-28T15:05:02.825Z,2.10
2023-04-28T15:07:31.896Z,1.30
2023-04-28T15:10:02.017Z,1.40
2023-04-28T15:12:30.841Z,1.73
2023-04-28T15:14:58.094Z,2.83
2023-04-28T15:17:24.931Z,3.33
2023-04-28T15:19:52.077Z,2.70
2023-04-28T15:22:18.904Z,2.73
2023-04-28T15:24:45.665Z,2.67
2023-04-28T15:27:12.360Z,1.80
2023-04-28T15:29:39.172Z,1.87
2023-04-28T15:32:07.258Z,5.37
2023-04-28T15:34:34.617Z,2.10
2023-04-28T15:37:02.515Z,1.40
2023-04-28T15:39:29.569Z,2.60
2023-04-28T15:41:56.314Z,1.67
2023-04-28T15:44:23.262Z,2.00
2023-04-28T15:46:51.949Z,1.70
2023-04-28T15:49:18.742Z,1.50
2023-04-28T15:51:45.848Z,1.50
2023-04-28T15:54:13.334Z,2.50
2023-04-28T15:56:40.180Z,2.17
2023-04-28T15:59:06.936Z,2.10
2023-04-28T16:01:33.810Z,3.67
2023-04-28T16:04:01.363Z,1.90
2023-04-28T16:06:29.412Z,2.10
2023-04-28T16:08:56.933Z,1.80
2023-04-28T16:11:24.441Z,2.60
2023-04-28T16:13:51.414Z,2.10
2023-04-28T16:16:18.252Z,2.07
2023-04-28T16:18:45.217Z,3.20
2023-04-28T16:21:16.359Z,2.17
2023-04-28T16:23:43.105Z,2.77
2023-04-28T16:26:09.784Z,2.83
2023-04-28T16:28:36.460Z,2.30
2023-04-28T16:31:03.154Z,2.70
2023-04-28T16:33:30.038Z,2.03
2023-04-28T16:35:59.447Z,1.70
2023-04-28T16:38:26.202Z,2.17
2023-04-28T16:40:53.004Z,1.40
2023-04-28T16:43:20.132Z,2.77
2023-04-28T16:45:47.559Z,3.80
2023-04-28T16:48:20.103Z,3.00
2023-04-28T16:50:46.789Z,3.67
2023-04-28T16:53:13.429Z,1.50
2023-04-28T16:55:40.381Z,0.90
2023-04-28T16:58:07.521Z,1.20
2023-04-28T17:00:34.190Z,2.57
2023-04-28T17:03:01.153Z,2.20
2023-04-28T17:05:28.498Z,1.30
2023-04-28T17:07:56.894Z,1.20
2023-04-28T17:10:23.783Z,1.47
2023-04-28T17:12:50.978Z,0.90
2023-04-28T17:15:18.079Z,2.00
2023-04-28T17:17:48.196Z,1.90
2023-04-28T17:20:19.972Z,1.27
2023-04-28T17:22:48.575Z,1.37
2023-04-28T17:25:16.301Z,1.43
2023-04-28T17:27:43.244Z,2.03
2023-04-28T17:30:14.052Z,2.53
2023-04-28T17:32:42.121Z,3.80
2023-04-28T17:35:09.266Z,1.50
2023-04-28T17:37:37.222Z,1.20
2023-04-28T17:40:05.066Z,1.10
2023-04-28T17:42:32.016Z,1.10
2023-04-28T17:44:58.859Z,1.10
2023-04-28T17:47:26.022Z,0.90
2023-04-28T17:49:52.666Z,0.90
2023-04-28T17:52:19.629Z,1.10
2023-04-28T17:54:46.315Z,1.00
2023-04-28T17:57:13.261Z,1.33
2023-04-28T17:59:40.802Z,1.13
2023-04-28T18:02:11.665Z,1.07
2023-04-28T18:04:42.295Z,1.00
2023-04-28T18:07:08.992Z,1.17
2023-04-28T18:09:35.966Z,1.20
2023-04-28T18:12:04.749Z,1.50
2023-04-28T18:14:31.818Z,1.47
2023-04-28T18:16:59.000Z,1.27
2023-04-28T18:19:27.842Z,1.50
2023-04-28T18:21:56.674Z,1.67
2023-04-28T18:24:24.953Z,1.73
2023-04-28T18:26:51.709Z,2.10
2023-04-28T18:29:19.000Z,2.77
2023-04-28T18:31:46.256Z,1.80
2023-04-28T18:34:13.220Z,1.70
2023-04-28T18:36:40.462Z,2.70
2023-04-28T18:39:09.040Z,3.63
2023-04-28T18:41:36.469Z,4.67
2023-04-28T18:44:03.264Z,4.50
2023-04-28T18:46:30.301Z,4.07
2023-04-28T18:48:57.169Z,4.07
2023-04-28T18:51:24.153Z,3.10
2023-04-28T18:53:51.273Z,3.67
2023-04-28T18:56:18.046Z,4.10
2023-04-28T18:58:45.764Z,3.83
2023-04-28T19:01:17.234Z,3.37
2023-04-28T19:03:44.896Z,4.30
2023-04-28T19:06:11.962Z,3.30
2023-04-28T19:08:39.166Z,3.00
2023-04-28T19:11:07.436Z,2.83
2023-04-28T19:13:35.730Z,2.27
2023-04-28T19:16:02.865Z,2.30
2023-04-28T19:18:33.570Z,2.53
2023-04-28T19:21:04.425Z,3.23
2023-04-28T19:23:32.624Z,2.00
2023-04-28T19:26:00.257Z,2.40
2023-04-28T19:28:28.977Z,2.30
2023-04-28T19:30:57.747Z,1.97
2023-04-28T19:33:31.020Z,2.20
2023-04-28T19:35:58.455Z,1.77
2023-04-28T19:38:28.387Z,1.60
2023-04-28T19:41:01.331Z,1.43
2023-04-28T19:43:28.369Z,1.40
2023-04-28T19:45:55.325Z,1.50
2023-04-28T19:48:22.155Z,1.47
2023-04-28T19:50:49.044Z,1.70
2023-04-28T19:53:15.803Z,1.67
2023-04-28T19:55:43.481Z,1.43
2023-04-28T19:58:10.700Z,1.50
2023-04-28T20:00:37.642Z,1.50
2023-04-28T20:03:04.632Z,1.30
2023-04-28T20:05:31.736Z,1.50
2023-04-28T20:07:58.454Z,1.70
2023-04-28T20:10:25.413Z,2.70
2023-04-28T20:12:53.595Z,7.97
2023-04-28T20:15:20.948Z,9.13
2023-04-28T20:17:47.856Z,4.20
2023-04-28T20:20:14.872Z,3.40
2023-04-28T20:22:41.665Z,2.13
2023-04-28T20:25:10.499Z,2.17
2023-04-28T20:27:37.719Z,1.70
2023-04-28T20:30:05.153Z,1.53
2023-04-28T20:32:31.953Z,1.70
2023-04-28T20:34:59.251Z,2.10
2023-04-28T20:37:26.513Z,2.10
2023-04-28T20:39:53.543Z,2.50
2023-04-28T20:42:20.325Z,2.37
2023-04-28T20:44:47.065Z,2.20
2023-04-28T20:47:14.141Z,2.00
2023-04-28T20:49:42.251Z,1.60
2023-04-28T20:52:09.135Z,1.83
2023-04-28T20:54:36.298Z,2.00
2023-04-28T20:57:06.645Z,2.27
2023-04-28T20:59:33.781Z,2.33
2023-04-28T21:02:00.931Z,2.03
2023-04-28T21:04:28.350Z,1.60
2023-04-28T21:06:55.637Z,2.00
2023-04-28T21:09:25.364Z,1.37
2023-04-28T21:11:52.457Z,1.27
2023-04-28T21:14:19.517Z,1.30
2023-04-28T21:16:46.381Z,1.43
2023-04-28T21:19:13.195Z,1.10
2023-04-28T21:21:39.986Z,1.33
2023-04-28T21:24:08.056Z,1.30
2023-04-28T21:26:36.144Z,1.40
2023-04-28T21:29:03.146Z,1.37
2023-04-28T21:31:31.238Z,1.30
2023-04-28T21:33:58.058Z,1.13
2023-04-28T21:36:24.831Z,1.50
2023-04-28T21:38:51.956Z,1.30
2023-04-28T21:41:18.710Z,1.20
2023-04-28T21:43:45.925Z,1.30
2023-04-28T21:46:12.987Z,1.23
2023-04-28T21:48:39.853Z,1.27
2023-04-28T21:51:06.637Z,1.00
2023-04-28T21:53:33.781Z,1.13
2023-04-28T21:56:00.619Z,1.40
2023-04-28T21:58:27.662Z,1.20
2023-04-28T22:00:55.057Z,1.00
2023-04-28T22:03:22.572Z,1.43
2023-04-28T22:05:50.416Z,1.30
2023-04-28T22:08:17.323Z,0.97
2023-04-28T22:10:45.546Z,1.20
2023-04-28T22:13:12.951Z,1.57
2023-04-28T22:15:40.143Z,1.10
2023-04-28T22:18:08.264Z,1.20
2023-04-28T22:20:36.109Z,0.93
2023-04-28T22:23:02.856Z,1.00
2023-04-28T22:25:29.593Z,1.10
2023-04-28T22:27:56.448Z,0.90
2023-04-28T22:30:25.817Z,0.90
2023-04-28T22:32:53.444Z,0.77
2023-04-28T22:35:20.301Z,0.80
2023-04-28T22:37:47.015Z,1.10
2023-04-28T22:40:13.994Z,0.83
2023-04-28T22:42:42.194Z,0.80
2023-04-28T22:45:10.176Z,0.70
2023-04-28T22:47:38.558Z,0.70
2023-04-28T22:50:06.507Z,0.60
2023-04-28T22:52:34.210Z,0.70
2023-04-28T22:55:01.349Z,1.00
2023-04-28T22:57:28.565Z,0.70
2023-04-28T22:59:55.350Z,0.67
2023-04-28T23:02:22.986Z,0.67
2023-04-28T23:04:50.350Z,0.60
2023-04-28T23:07:17.298Z,0.70
2023-04-28T23:09:44.000Z,0.70
2023-04-28T23:12:10.781Z,0.90
2023-04-28T23:14:38.093Z,0.60
2023-04-28T23:17:05.066Z,0.80
2023-04-28T23:19:32.016Z,0.77
2023-04-28T23:21:59.102Z,1.10
2023-04-28T23:24:27.219Z,0.60
2023-04-28T23:26:53.980Z,0.70
2023-04-28T23:29:20.665Z,0.73
2023-04-28T23:31:52.287Z,0.60
2023-04-28T23:34:19.246Z,0.60
2023-04-28T23:36:46.221Z,0.60
2023-04-28T23:39:13.109Z,0.60
2023-04-28T23:41:39.798Z,0.70
2023-04-28T23:44:06.550Z,0.60
2023-04-28T23:46:33.323Z,1.10
2023-04-28T23:48:59.978Z,0.60
2023-04-28T23:51:26.645Z,0.53
2023-04-28T23:53:53.661Z,0.50
2023-04-28T23:56:20.439Z,0.53
2023-04-28T23:58:47.462Z,0.70
